Terminal Aerodrome Forecast
Issued by NWS Bismarck, ND

Home | Current Version | Previous Version | Graphics & Text | Print | Product List | Glossary On
Versions: 1 2 3 4 5 6 7 8 9 10 11 12 13 14 15 16 17 18 19 20 21
000
FTUS43 KBIS 192300
TAFBIS
TAF
KBIS 192334Z 2000/2024 20007KT P6SM SKC
     FM201400 14008KT P6SM BKN200
     FM201800 14012KT P6SM -SHRA BKN060 OVC090
      TEMPO 2018/2022 3SM TSRA BKN030CB OVC060=

USA.gov is the U.S. government's official web portal to all federal, state and local government web resources and services.